Date,TemperatureHighF,TemperatureAvgF,TemperatureLowF,DewpointHighF,DewpointAvgF,DewpointLowF,HumidityHigh,HumidityAvg,HumidityLow,PressureMaxIn,PressureMinIn,WindSpeedMaxMPH,WindSpeedAvgMPH,GustSpeedMaxMPH,PrecipitationSumIn
2013-1-1,13.6,6.8,-2.8,6.7,0.6,-6.2,85,75,61,30.30,30.15,4,2,8,0.00
2013-1-2,28.3,14.9,3.3,26.5,10.9,-0.6,93,84,78,30.16,30.01,5,2,8,0.00
2013-1-3,28.5,15.5,9.2,26.5,11.0,6.1,92,82,75,30.32,30.09,6,3,11,0.00
2013-1-4,30.5,20.1,9.8,22.4,15.7,6.7,91,83,71,30.23,30.14,8,3,17,0.00
2013-1-5,36.5,24.1,13.8,32.1,20.9,11.9,94,87,79,30.15,29.88,7,2,12,0.04
2013-1-6,24.8,16.9,12.1,15.7,12.1,8.1,90,81,65,30.26,29.99,6,3,12,0.00
2013-1-7,39.7,29.3,13.9,31.0,23.6,11.0,90,80,66,30.20,29.97,6,2,10,0.01
2013-1-8,39.7,31.1,21.6,33.3,27.5,19.9,95,87,77,30.00,29.83,6,3,13,0.00
2013-1-9,41.7,33.0,28.4,32.1,28.7,25.9,94,84,66,30.39,29.98,10,3,14,0.00
2013-1-10,39.5,32.6,26.8,35.0,28.6,24.7,98,86,58,30.37,29.70,8,4,11,0.13
2013-1-11,46.6,39.7,34.5,43.5,39.0,33.9,99,97,88,29.71,29.43,6,2,10,0.05
2013-1-12,47.5,24.1,14.8,43.5,17.3,6.9,93,75,67,30.04,29.44,11,6,22,0.00
2013-1-13,14.7,11.0,6.6,7.6,4.7,0.7,83,75,69,30.29,29.97,6,3,14,0.00
2013-1-14,26.7,15.1,6.4,14.9,9.2,2.8,91,77,60,30.45,30.29,5,1,9,0.00
2013-1-15,32.2,21.7,13.6,17.4,13.4,8.9,83,71,52,30.37,30.01,6,2,12,0.00
2013-1-16,42.2,30.3,19.6,36.2,24.0,12.2,88,77,68,30.14,29.79,8,4,12,0.00
2013-1-17,30.6,22.3,13.9,20.8,14.5,5.8,86,72,53,30.40,30.14,6,2,15,0.00
2013-1-18,51.0,37.3,25.0,35.8,29.4,20.6,86,74,54,30.33,29.80,10,5,18,0.00
2013-1-19,49.9,35.3,12.6,35.0,26.9,4.3,89,72,54,30.15,29.71,12,5,21,0.00
2013-1-20,12.6,9.8,6.1,6.8,3.3,-0.7,80,74,67,30.36,30.15,8,4,21,0.00
2013-1-21,9.1,2.2,-4.9,5.4,-5.7,-14.1,86,69,57,30.38,30.27,8,5,18,0.00
2013-1-22,11.8,5.5,-1.6,2.0,-3.2,-6.3,81,68,56,30.43,30.31,5,2,8,0.00
2013-1-23,25.0,15.9,11.8,13.7,7.6,2.0,74,69,62,30.31,30.15,5,2,10,0.00
2013-1-24,18.4,16.3,14.9,7.2,0.5,-5.0,61,50,40,30.45,30.22,7,5,10,0.00
2013-1-25,31.1,20.1,8.7,19.5,10.0,2.1,74,65,48,30.28,30.01,9,4,17,0.00
2013-1-26,29.0,17.6,3.9,15.4,7.1,0.0,84,64,46,30.37,30.19,8,4,13,0.00
2013-1-27,33.1,30.8,27.8,32.6,26.1,15.4,98,84,59,30.18,29.73,8,4,15,0.00
2013-1-28,43.2,34.5,31.5,42.8,34.1,31.0,99,98,98,29.89,29.58,8,2,9,0.37
2013-1-29,51.9,38.8,33.6,51.5,37.3,31.0,99,94,89,29.58,29.45,6,3,11,0.03
2013-1-30,33.7,21.9,13.2,31.3,19.6,8.2,97,91,79,29.75,29.39,9,6,17,0.00
2013-1-31,13.1,4.0,-3.2,8.3,-1.7,-8.9,86,77,67,30.32,29.75,9,6,19,0.00
2013-2-1,15.1,1.6,-8.3,11.8,-4.1,-13.1,88,77,66,30.39,30.05,5,3,13,0.00
2013-2-2,20.2,15.7,13.1,17.0,11.3,7.4,92,83,71,30.15,29.94,7,2,12,0.00
2013-2-3,24.2,19.0,12.3,19.5,14.0,7.9,93,81,68,30.11,29.82,9,4,13,0.00
2013-2-4,24.4,19.7,14.4,19.6,14.7,10.2,89,81,70,29.99,29.78,6,2,12,0.00
2013-2-5,38.7,26.7,16.7,30.2,22.3,13.2,91,84,69,30.08,29.76,8,3,15,0.08
2013-2-6,37.5,27.8,13.8,33.4,24.7,12.2,95,88,78,30.12,29.92,8,2,11,0.01
2013-2-7,35.9,32.8,27.2,34.5,30.8,24.5,97,92,87,30.12,29.86,7,3,15,0.28
2013-2-8,29.8,27.6,26.6,25.4,24.1,23.3,90,86,78,30.31,30.13,6,3,14,0.00
2013-2-9,30.7,28.9,27.1,28.2,26.3,24.0,93,90,88,30.25,29.88,9,5,15,0.00
2013-2-10,42.5,35.5,29.8,41.2,34.0,28.0,98,94,83,29.90,29.23,14,7,24,0.44
2013-2-11,32.2,27.7,24.0,28.5,22.6,19.0,93,81,74,30.06,29.40,12,8,30,0.00
2013-2-12,40.9,30.0,22.5,31.0,24.5,17.6,91,80,65,30.08,29.80,6,2,15,0.00
2013-2-13,43.4,34.1,25.4,35.1,29.5,23.8,94,83,70,29.80,29.58,6,2,11,0.00
2013-2-14,39.7,33.6,23.4,33.0,27.8,12.1,95,79,61,30.08,29.58,8,4,16,0.00
2013-2-15,25.4,20.2,15.2,14.8,11.2,7.0,82,68,56,30.26,30.08,6,4,14,0.00
2013-2-16,26.0,17.8,11.4,17.2,12.4,7.5,87,79,68,30.26,30.11,5,1,11,0.00
2013-2-17,36.2,26.5,15.6,25.4,19.9,12.2,88,76,63,30.11,29.67,10,6,16,0.00
2013-2-18,41.7,28.5,10.8,33.9,23.1,3.2,91,80,69,29.79,29.51,11,5,19,0.00
2013-2-19,16.8,7.9,1.6,5.6,0.5,-4.8,84,72,60,30.34,29.79,10,7,26,0.00
2013-2-20,24.1,11.5,0.2,12.9,3.7,-5.2,79,71,52,30.45,30.33,6,2,18,0.00
2013-2-21,25.2,20.0,13.3,22.1,15.0,8.8,94,81,72,30.36,29.88,9,4,16,0.00
2013-2-22,30.7,25.0,17.0,26.0,22.3,14.2,95,89,80,29.90,29.75,5,2,12,0.00
2013-2-23,26.7,18.9,13.2,19.4,14.9,11.3,94,85,70,29.95,29.88,5,2,11,0.00
2013-2-24,33.2,20.7,8.0,24.2,16.4,5.8,93,84,66,30.07,29.95,4,1,7,0.03
2013-2-25,38.4,30.2,22.7,29.7,25.3,20.3,92,82,66,30.09,29.90,3,1,5,0.13
2013-2-26,31.6,30.4,28.3,30.6,28.1,24.7,98,92,80,29.90,29.65,7,4,16,0.00
2013-2-27,32.7,30.4,28.4,31.3,29.4,27.7,98,96,94,29.87,29.69,5,1,11,0.00
2013-2-28,33.2,29.4,27.0,28.3,25.3,23.1,93,85,74,30.10,29.87,7,4,11,0.02
2013-3-1,29.1,25.5,18.2,23.6,19.3,14.2,87,77,60,30.27,30.09,6,3,12,0.00
2013-3-2,28.5,17.9,8.9,18.3,12.4,6.6,92,80,56,30.29,30.16,3,1,7,0.00
2013-3-3,30.9,20.6,8.7,19.2,14.0,6.4,92,76,53,30.16,29.97,6,2,10,0.00
2013-3-4,32.2,27.1,22.6,26.4,22.9,17.8,93,84,74,30.00,29.83,10,6,19,0.00
2013-3-5,32.5,28.2,25.7,27.1,24.7,22.1,95,87,76,30.19,29.89,7,3,15,0.00
2013-3-6,29.5,23.4,12.4,22.0,18.5,10.8,93,82,70,30.35,30.19,7,3,13,0.00
2013-3-7,28.9,17.7,5.4,22.6,14.2,3.1,93,86,75,30.37,30.30,6,2,9,0.00
2013-3-8,39.9,29.9,19.7,31.8,25.9,17.5,93,85,72,30.33,30.08,8,4,14,0.07
2013-3-9,37.6,35.7,33.8,37.1,34.5,31.5,98,95,86,30.08,29.65,9,5,15,1.12
2013-3-10,37.5,35.2,32.6,37.0,34.5,31.8,98,97,96,29.73,29.56,8,3,15,1.21
2013-3-11,33.1,29.2,24.4,32.3,26.7,19.3,98,90,80,29.86,29.61,7,4,14,0.03
2013-3-12,32.2,25.6,21.3,29.6,20.9,16.4,90,82,67,30.14,29.86,8,4,15,0.03
2013-3-13,30.4,22.7,16.1,19.6,16.2,12.4,92,76,58,30.38,30.14,6,3,14,0.00
2013-3-14,44.5,32.2,20.2,33.2,26.2,17.7,92,79,61,30.30,30.00,8,2,11,0.02
2013-3-15,42.9,34.7,27.5,36.7,31.4,25.9,96,88,77,29.99,29.68,7,2,12,0.00
2013-3-16,34.3,30.2,24.6,32.8,25.3,18.0,97,82,65,30.15,29.74,10,4,16,0.00
2013-3-17,35.1,27.3,19.1,27.0,19.9,12.7,84,74,63,30.16,29.85,11,5,17,0.00
2013-3-18,32.4,25.9,16.3,31.0,21.8,9.4,95,84,72,29.89,29.62,11,6,21,0.00
2013-3-19,27.7,19.3,11.3,19.6,10.7,5.7,78,69,54,30.19,29.86,8,6,23,0.00
2013-3-20,23.2,16.7,10.6,9.2,6.3,2.7,75,64,51,30.23,30.11,10,6,18,0.00
2013-3-21,29.1,18.8,8.0,15.9,9.9,4.3,86,69,51,30.12,29.99,6,1,13,0.00
2013-3-22,36.9,25.8,12.6,23.0,17.0,10.5,93,70,50,30.06,29.99,3,1,8,0.00
2013-3-23,38.7,31.2,22.3,25.2,21.5,19.3,89,69,49,30.09,29.98,4,2,9,0.00
2013-3-24,32.1,30.2,28.1,28.7,26.7,24.7,95,87,74,30.01,29.81,6,3,11,0.00
2013-3-25,36.7,30.4,25.8,26.6,23.6,19.9,94,76,58,30.16,29.88,8,5,14,0.01
2013-3-26,38.9,31.6,23.5,26.9,23.5,20.5,88,73,50,30.27,30.16,4,2,8,0.00
2013-3-27,44.6,33.5,22.7,28.4,25.0,21.3,96,73,49,30.31,30.24,3,1,7,0.00
2013-3-28,50.4,36.8,24.1,33.8,28.5,22.1,93,73,50,30.30,30.20,4,1,6,0.00
2013-3-29,57.2,42.8,27.8,38.6,32.9,24.9,92,70,47,30.25,30.09,5,2,8,0.00
2013-3-30,48.7,43.0,36.0,47.4,39.8,32.2,98,89,72,30.09,29.80,6,2,9,0.10
2013-3-31,46.5,37.6,29.8,37.9,30.7,22.1,99,78,49,30.00,29.79,10,4,18,0.01
2013-4-1,36.4,29.3,22.7,22.0,18.3,15.8,80,64,45,30.23,30.00,7,4,15,0.00
2013-4-2,40.4,31.3,22.3,21.7,19.6,15.8,88,64,42,30.31,30.23,7,2,13,0.00
2013-4-3,46.0,33.4,20.0,23.0,20.1,16.0,92,62,35,30.40,30.20,6,2,8,0.00
2013-4-4,56.9,44.3,32.8,39.7,30.5,22.1,73,59,36,30.20,29.96,7,3,15,0.00
2013-4-5,51.4,42.8,31.4,32.0,28.3,25.4,84,59,39,30.16,29.84,8,4,13,0.00
2013-4-6,61.6,50.3,41.5,50.5,39.0,27.7,86,66,53,29.85,29.46,11,6,18,0.00
2013-4-7,60.5,47.9,37.2,43.5,38.7,33.9,88,72,49,29.89,29.65,7,3,18,0.00
2013-4-8,73.0,58.0,46.9,55.8,49.6,42.9,97,76,43,29.78,29.56,7,3,12,0.83
2013-4-9,51.7,45.1,39.5,47.9,43.4,38.1,97,94,82,29.88,29.65,9,5,17,2.21
2013-4-10,39.4,36.9,34.6,38.1,35.2,33.1,96,94,91,30.00,29.68,9,5,17,0.71
2013-4-11,44.7,39.1,36.4,43.1,37.5,34.4,98,94,87,29.69,29.49,8,3,21,0.37
2013-4-12,37.2,35.3,33.0,35.4,31.1,28.2,96,85,75,29.84,29.50,7,4,14,0.00
2013-4-13,46.6,37.6,30.9,33.0,29.3,24.9,86,73,56,29.93,29.82,6,3,12,0.00
2013-4-14,65.8,47.4,36.1,56.5,43.3,32.1,96,86,65,29.86,29.37,10,5,17,1.09
2013-4-15,49.6,42.3,36.8,46.8,34.7,29.5,92,75,59,29.99,29.54,8,3,14,0.00
2013-4-16,48.7,40.8,31.5,35.0,31.4,27.9,88,70,52,30.19,29.97,6,2,13,0.00
2013-4-17,46.2,42.1,38.6,44.9,38.4,33.1,97,88,65,30.18,29.52,11,4,17,2.32
2013-4-18,46.1,39.2,33.8,45.0,37.6,30.5,97,94,87,29.67,29.37,7,4,20,0.39
2013-4-19,36.6,34.0,30.9,30.7,28.0,25.9,89,79,67,29.98,29.50,9,6,19,0.00
2013-4-20,47.7,37.2,27.1,28.0,22.7,14.5,89,60,27,30.27,29.98,5,2,11,0.00
2013-4-21,62.0,48.3,38.5,46.3,37.7,27.5,81,67,53,30.26,30.02,12,7,19,0.02
2013-4-22,63.4,52.9,43.2,50.0,46.3,41.4,94,80,53,30.13,29.83,9,3,19,0.46
2013-4-23,42.9,37.1,33.9,41.3,30.4,26.1,94,77,59,30.03,29.90,8,5,13,0.00
2013-4-24,52.9,40.5,28.2,39.2,29.1,24.7,87,67,34,30.08,29.93,10,4,15,0.03
2013-4-25,57.5,43.3,31.1,34.7,27.9,18.8,86,58,28,30.22,30.01,6,3,17,0.00
2013-4-26,68.6,56.4,43.3,50.0,42.4,32.3,85,61,43,30.13,30.04,10,5,19,0.00
2013-4-27,66.0,55.5,44.9,48.4,45.7,42.4,92,72,49,30.14,29.91,6,2,12,0.00
2013-4-28,75.7,59.7,42.3,49.6,46.2,40.4,95,65,37,29.91,29.67,5,2,11,0.00
2013-4-29,79.7,63.6,53.1,58.8,54.3,49.3,94,74,46,29.73,29.48,6,2,10,0.42
2013-4-30,83.2,72.1,58.3,61.7,55.3,42.3,91,58,38,29.79,29.46,11,5,21,0.23
2013-5-1,58.6,51.6,40.3,48.1,42.7,34.9,86,72,59,30.23,29.78,10,7,19,0.00
2013-5-2,40.1,34.8,32.3,35.0,32.8,31.1,97,92,81,30.33,30.18,10,6,20,0.86
2013-5-3,36.2,33.6,31.9,35.4,32.7,30.9,97,96,95,30.26,29.92,6,4,16,1.91
2013-5-4,67.4,51.8,36.1,58.5,48.4,35.3,98,89,68,29.99,29.87,6,4,12,0.53
2013-5-5,70.7,57.0,46.0,56.7,49.9,43.2,93,78,52,30.01,29.92,5,2,9,0.00
2013-5-6,76.2,62.5,49.9,54.1,49.2,44.6,93,66,34,30.00,29.90,4,1,8,0.00
2013-5-7,80.3,65.9,49.6,51.1,46.7,39.8,91,55,25,29.98,29.87,4,1,6,0.00
2013-5-8,79.4,63.6,51.2,59.1,52.2,46.8,95,70,33,29.92,29.84,8,2,17,0.13
2013-5-9,66.1,60.1,54.8,61.6,58.2,52.8,97,93,80,29.85,29.71,6,1,11,0.89
2013-5-10,65.4,54.9,46.9,53.0,48.5,43.9,94,80,56,29.94,29.80,6,3,15,0.00
2013-5-11,54.9,50.9,43.2,49.4,32.7,17.2,90,53,24,30.08,29.83,8,4,16,0.00
2013-5-12,60.0,47.2,34.0,31.6,26.5,21.7,78,47,24,30.16,30.03,5,2,13,0.00
2013-5-13,72.8,56.2,35.5,47.2,37.2,28.9,84,53,26,30.08,29.74,7,2,9,0.00
2013-5-14,97.5,77.4,55.7,59.1,53.1,44.0,84,48,21,29.74,29.43,10,4,23,0.00
2013-5-15,81.7,71.3,61.6,50.5,44.7,35.5,63,40,24,29.80,29.56,5,2,15,0.00
2013-5-16,83.6,71.0,53.2,53.4,49.3,44.8,86,50,28,29.83,29.71,5,1,8,0.00
2013-5-17,80.8,71.1,62.4,62.0,58.2,52.8,89,65,48,29.86,29.74,7,3,10,0.00
2013-5-18,84.0,72.0,59.8,65.3,60.5,54.3,92,69,47,29.88,29.71,7,3,11,0.00
2013-5-19,84.7,72.4,63.0,70.5,65.1,60.6,97,79,51,29.74,29.46,11,6,19,2.57
2013-5-20,79.8,68.6,59.7,64.2,60.2,56.8,98,77,50,29.57,29.45,9,4,15,0.40
2013-5-21,69.7,63.9,59.6,59.2,55.8,52.3,94,76,56,29.58,29.44,7,3,22,0.00
2013-5-22,65.8,58.8,54.7,58.9,54.5,50.3,96,86,71,29.73,29.54,7,2,14,0.12
2013-5-23,67.2,58.3,49.3,55.4,47.6,40.6,96,70,41,30.20,29.73,6,3,16,0.01
2013-5-24,68.1,56.6,45.0,48.6,42.4,38.2,86,62,35,30.33,30.11,8,3,12,0.04
2013-5-25,60.0,52.4,48.8,49.8,47.8,43.8,95,85,55,30.22,30.11,8,4,13,1.62
2013-5-26,55.2,49.8,47.3,54.1,45.6,-99.9,98,91,86,30.15,29.92,15,-22,17,0.13
2013-5-27,66.5,60.0,54.8,63.7,58.6,54.0,99,95,89,30.05,29.76,11,3,15,0.03
2013-5-28,79.5,67.3,58.0,67.7,62.7,57.4,99,86,64,29.76,29.64,5,2,10,0.75
2013-5-29,79.3,66.8,59.1,71.0,63.2,57.4,99,89,70,29.83,29.68,13,3,18,2.49
2013-5-30,76.8,69.6,62.4,66.7,64.1,59.9,97,83,65,29.72,29.55,9,5,15,0.02
2013-5-31,77.0,68.5,60.7,64.3,62.0,59.1,96,81,60,29.70,29.60,7,4,19,0.00
2013-6-1,68.1,64.2,59.0,63.6,57.8,52.3,93,80,63,29.84,29.58,7,3,12,0.03
2013-6-2,65.4,56.0,49.3,54.9,45.8,42.8,88,70,46,30.06,29.83,5,2,14,0.00
2013-6-3,71.5,59.4,43.9,50.7,46.3,41.5,98,66,39,30.11,29.97,5,2,8,0.00
2013-6-4,60.5,57.6,54.7,56.1,52.1,48.9,92,82,69,30.14,30.00,8,3,13,0.55
2013-6-5,67.6,60.2,55.7,61.4,57.9,53.1,97,92,75,30.05,29.91,3,1,8,0.19
2013-6-6,71.0,61.6,54.8,57.9,55.7,53.6,99,82,59,29.96,29.88,4,1,8,0.00
2013-6-7,66.6,60.0,54.2,56.5,54.4,52.8,95,82,62,30.00,29.92,3,1,8,0.00
2013-6-8,72.2,63.4,50.6,58.2,54.4,50.1,99,75,53,29.94,29.84,4,2,8,0.00
2013-6-9,71.9,66.6,61.8,63.4,59.6,55.5,94,78,68,29.84,29.70,10,4,14,0.02
2013-6-10,79.0,66.7,59.5,64.4,61.3,58.4,99,84,60,29.87,29.75,3,1,8,0.00
2013-6-11,86.0,73.8,61.5,69.4,64.9,59.9,95,76,48,29.89,29.75,6,2,9,0.00
2013-6-12,88.3,75.9,67.2,74.2,69.9,65.5,97,82,60,29.87,29.58,7,2,15,1.14
2013-6-13,82.0,71.5,61.6,65.9,59.1,53.2,97,68,38,30.02,29.77,4,1,11,0.01
2013-6-14,75.9,67.8,59.0,62.1,59.0,56.3,93,74,58,30.08,29.84,9,3,13,0.01
2013-6-15,78.5,71.1,64.0,70.9,66.3,62.0,97,85,72,29.99,29.81,10,2,11,0.19
2013-6-16,86.3,75.3,64.3,66.3,57.3,44.2,97,60,25,29.93,29.87,4,1,8,0.00
2013-6-17,88.2,76.0,60.0,61.1,56.3,51.6,88,54,30,29.94,29.84,5,1,9,0.00
2013-6-18,79.2,70.5,60.8,58.6,57.0,53.9,88,64,43,30.02,29.90,5,1,10,0.00
2013-6-19,83.3,72.2,60.6,60.3,57.3,53.6,81,61,42,30.09,29.97,6,3,12,0.00
2013-6-20,88.6,78.1,65.5,65.7,62.3,59.2,81,60,42,30.04,29.91,7,4,12,0.00
2013-6-21,85.2,76.5,64.3,74.1,68.1,62.7,95,76,61,30.02,29.81,9,4,14,0.37
2013-6-22,92.0,80.7,69.9,74.7,71.7,66.2,95,76,52,29.95,29.78,9,3,13,0.00
2013-6-23,81.9,75.1,66.7,73.0,68.2,64.0,94,80,61,29.95,29.79,6,3,11,0.17
2013-6-24,72.4,69.7,65.3,69.5,66.8,64.1,97,91,85,30.02,29.80,8,3,20,0.96
2013-6-25,87.7,76.3,67.0,74.7,70.2,64.2,98,82,57,29.83,29.68,5,2,11,0.08
2013-6-26,87.8,76.2,66.2,76.5,69.8,64.4,96,81,66,29.79,29.66,8,1,12,0.40
2013-6-27,87.8,77.3,66.6,69.3,64.6,58.5,91,67,39,29.84,29.77,5,2,14,0.00
2013-6-28,81.5,74.7,67.9,62.2,59.5,57.2,82,60,46,29.81,29.70,7,2,15,0.00
2013-6-29,72.2,66.5,63.7,64.1,61.2,58.2,95,84,70,29.88,29.68,7,2,13,0.21
2013-6-30,76.4,68.0,59.6,58.3,54.5,50.5,84,64,42,30.06,29.88,5,2,11,0.00
2013-7-1,80.0,68.9,55.5,58.4,53.7,45.1,94,62,31,30.13,30.06,6,1,14,0.00
2013-7-2,83.9,71.0,58.8,62.9,58.1,52.3,93,67,35,30.10,29.99,4,1,9,0.00
2013-7-3,81.7,70.8,60.9,58.5,54.7,49.7,82,60,34,30.06,29.96,3,1,8,0.00
2013-7-4,86.3,73.8,60.4,60.4,57.0,55.0,83,58,36,30.02,29.93,5,2,9,0.00
2013-7-5,87.2,75.8,62.5,63.1,60.4,57.8,86,61,38,29.99,29.89,6,3,10,0.00
2013-7-6,89.6,78.6,65.7,67.7,64.5,61.4,87,64,43,29.95,29.84,6,3,9,0.00
2013-7-7,91.8,80.4,68.2,70.5,67.5,65.2,91,67,44,29.90,29.82,6,3,10,0.00
2013-7-8,94.6,83.5,76.0,75.4,71.4,65.0,85,68,40,29.92,29.83,4,2,11,0.00
2013-7-9,90.5,80.5,73.3,77.2,73.9,71.2,96,81,61,29.93,29.81,6,2,17,0.37
2013-7-10,82.1,74.4,65.6,71.1,60.8,54.4,88,65,41,30.03,29.86,5,1,13,0.00
2013-7-11,82.5,72.0,60.2,61.8,58.6,54.1,97,66,41,30.11,30.02,5,1,8,0.00
2013-7-12,83.3,73.0,61.6,61.4,58.9,54.5,86,64,39,30.09,30.00,8,3,12,0.00
2013-7-13,72.2,67.8,63.5,65.7,61.2,57.7,90,79,71,30.12,30.02,5,2,8,0.07
2013-7-14,85.1,74.3,60.7,68.5,63.6,58.9,95,72,48,30.17,30.08,6,2,10,0.00
2013-7-15,88.6,77.8,65.5,77.3,69.7,63.1,96,77,59,30.22,30.13,5,1,8,0.03
2013-7-16,92.3,82.3,72.6,74.1,72.2,70.5,94,73,51,30.23,30.17,3,2,8,0.00
2013-7-17,95.6,84.6,74.6,73.6,71.4,66.2,89,67,42,30.26,30.13,3,1,8,0.00
2013-7-18,94.0,84.5,74.1,72.5,70.4,67.3,87,65,44,30.13,29.87,6,2,12,0.00
2013-7-19,92.3,81.7,72.2,74.4,67.7,60.7,75,64,42,29.87,29.77,6,2,12,0.00
2013-7-20,88.2,76.2,62.2,67.7,63.0,60.0,93,66,40,29.92,29.83,4,1,11,0.00
2013-7-21,83.4,74.6,67.1,70.4,65.9,62.4,90,75,52,29.89,29.79,6,2,9,0.00
2013-7-22,91.1,73.4,63.2,75.1,66.9,61.6,98,82,53,29.84,29.66,6,2,11,0.68
2013-7-23,76.4,69.1,63.0,65.0,57.8,53.8,90,69,47,29.98,29.76,5,2,11,0.00
2013-7-24,80.0,67.3,54.5,58.9,55.6,52.3,96,68,41,30.07,29.98,3,1,8,0.00
2013-7-25,85.2,70.8,58.6,66.3,61.3,55.8,97,75,46,30.04,29.91,5,2,17,2.17
2013-7-26,74.6,68.3,61.1,67.1,60.1,53.1,97,77,49,30.00,29.91,5,2,13,0.11
2013-7-27,66.9,58.8,52.2,53.1,48.9,45.3,88,71,47,30.05,29.95,6,2,11,0.00
2013-7-28,71.0,61.0,52.1,53.0,50.4,47.2,85,69,50,30.06,29.92,4,1,9,0.00
2013-7-29,75.9,64.4,50.6,57.7,53.7,49.5,97,71,46,30.15,30.06,4,1,8,0.00
2013-7-30,68.4,66.2,63.8,63.7,61.4,56.9,91,85,76,30.09,30.04,5,1,8,0.00
2013-7-31,82.0,71.5,60.9,66.4,63.4,60.0,98,77,52,30.08,29.98,4,1,9,0.00
2013-8-1,84.2,71.1,60.1,66.7,60.4,51.8,94,71,45,30.05,29.86,6,1,12,0.03
2013-8-2,80.7,70.0,64.1,66.1,62.5,55.6,95,79,45,30.00,29.85,4,1,8,0.08
2013-8-3,78.0,67.8,56.2,62.5,55.9,51.1,98,69,41,30.17,30.00,4,1,8,0.00
2013-8-4,79.8,68.2,54.6,58.8,55.7,51.0,96,67,42,30.20,30.05,5,1,8,0.00
2013-8-5,78.8,68.6,61.4,73.0,64.6,56.4,97,87,75,30.05,29.80,6,2,11,0.76
2013-8-6,87.4,76.2,65.4,72.6,68.7,64.7,99,80,50,29.86,29.74,4,1,11,0.00
2013-8-7,77.4,71.7,65.5,68.8,63.6,57.7,95,76,58,29.99,29.75,4,1,11,0.00
2013-8-8,79.1,68.3,57.4,62.9,58.8,54.1,90,73,50,30.02,29.96,3,0,8,0.00
2013-8-9,78.8,70.8,62.5,65.4,60.1,54.8,92,71,44,30.10,29.97,3,1,11,0.00
2013-8-10,80.0,68.5,54.8,61.8,57.0,53.1,95,69,48,30.18,30.08,4,1,8,0.00
2013-8-11,79.9,70.5,64.9,69.4,63.7,59.4,97,80,66,30.11,29.96,5,1,8,0.40
2013-8-12,80.5,70.8,63.5,68.0,62.3,56.2,98,78,46,30.02,29.95,4,1,9,0.00
2013-8-13,73.6,64.6,55.7,59.2,54.0,48.7,91,71,44,30.17,30.01,5,1,9,0.00
2013-8-14,75.9,62.7,51.4,56.5,51.6,45.5,98,71,39,30.24,30.13,3,0,8,0.00
2013-8-15,76.5,66.6,59.2,56.7,54.4,50.0,87,67,44,30.16,30.08,4,1,8,0.00
2013-8-16,79.9,65.2,53.0,59.8,55.9,52.3,98,75,43,30.20,30.13,2,0,8,0.00
2013-8-17,81.2,68.2,55.4,59.6,56.7,54.3,98,71,41,30.22,30.12,4,1,8,0.00
2013-8-18,80.7,68.0,55.2,61.3,58.0,54.2,98,73,46,30.19,30.06,5,1,8,0.00
2013-8-19,82.8,70.6,58.7,66.2,61.2,55.3,89,74,49,30.08,29.97,5,1,12,0.00
2013-8-20,86.9,75.2,64.5,71.2,66.6,61.7,91,76,57,30.00,29.91,6,3,12,0.00
2013-8-21,86.8,77.8,69.2,73.5,69.6,65.4,89,77,58,29.96,29.90,6,2,14,0.00
2013-8-22,82.7,74.1,67.1,71.6,68.6,65.5,95,84,61,30.09,29.94,4,1,8,0.28
2013-8-23,82.5,73.8,63.9,69.0,66.5,63.3,99,79,61,30.13,30.04,5,2,9,0.00
2013-8-24,87.3,76.2,64.8,74.8,68.6,61.2,89,78,60,30.16,30.05,7,4,12,0.00
2013-8-25,92.5,80.2,69.2,73.1,69.6,64.7,91,72,48,30.14,30.02,5,3,12,0.00
2013-8-26,94.3,81.4,69.9,75.9,71.3,64.9,92,73,52,30.07,29.90,5,2,12,0.00
2013-8-27,95.7,83.5,72.4,74.3,71.4,68.6,89,69,48,29.92,29.79,7,3,12,0.00
2013-8-28,90.4,81.8,74.1,79.9,75.1,70.6,91,81,68,29.96,29.84,3,1,8,0.00
2013-8-29,94.1,82.1,72.2,76.9,72.6,68.6,97,76,44,30.00,29.88,4,2,9,0.00
2013-8-30,96.0,83.2,73.2,78.9,74.5,71.0,93,77,52,29.88,29.74,4,1,10,0.11
2013-8-31,84.5,74.8,69.6,72.2,70.3,68.5,98,87,63,29.82,29.74,5,0,8,0.47
2013-9-1,81.3,73.5,63.9,70.6,64.9,57.6,97,77,45,29.90,29.73,5,2,10,0.00
2013-9-2,72.3,63.6,54.3,59.5,55.5,51.3,94,76,54,30.05,29.90,5,2,9,0.00
2013-9-3,77.5,61.8,48.8,58.5,53.6,48.2,98,77,42,30.12,30.03,3,1,8,0.00
2013-9-4,88.0,72.0,57.6,67.4,60.8,53.0,93,70,44,30.13,30.04,4,1,9,0.00
2013-9-5,84.5,74.8,64.9,71.8,67.6,63.4,96,79,62,30.17,30.08,3,1,8,0.00
2013-9-6,89.1,75.7,62.9,67.3,63.2,60.2,92,68,39,30.12,29.91,5,2,13,0.00
2013-9-7,91.0,77.5,68.0,73.0,67.4,60.9,86,72,51,29.92,29.83,4,1,8,0.00
2013-9-8,76.7,72.8,69.6,71.1,68.5,66.2,92,86,78,29.97,29.85,5,2,11,0.00
2013-9-9,98.7,81.2,68.3,73.0,67.2,62.9,98,68,33,29.85,29.73,6,2,13,0.00
2013-9-10,95.4,81.7,69.5,69.4,64.4,61.7,78,58,35,29.96,29.80,8,3,14,0.00
2013-9-11,83.2,73.5,65.5,67.4,64.7,60.0,96,76,55,30.05,29.95,4,1,8,0.09
2013-9-12,75.0,66.6,58.2,60.2,52.8,47.8,86,63,39,30.17,30.01,5,1,13,0.00
2013-9-13,69.8,58.5,48.7,50.1,46.8,43.9,89,67,42,30.26,30.12,3,1,8,0.00
2013-9-14,75.5,61.0,46.3,47.3,45.2,42.9,90,60,33,30.16,29.91,6,2,10,0.00
2013-9-15,64.2,60.2,54.9,59.7,54.8,47.3,96,83,55,30.23,29.87,5,2,11,0.25
2013-9-16,67.1,56.9,49.8,53.9,51.5,47.0,98,83,60,30.39,30.23,3,1,8,0.00
2013-9-17,63.9,57.0,49.7,61.1,53.3,46.8,92,88,79,30.29,30.02,6,3,9,0.01
2013-9-18,88.6,71.8,62.8,71.8,65.9,61.2,98,84,53,30.02,29.75,7,3,13,0.13
2013-9-19,86.0,73.9,66.6,71.4,68.3,65.7,98,84,56,29.80,29.68,7,2,11,0.69
2013-9-20,67.1,59.9,53.0,66.4,54.0,48.8,98,81,66,29.94,29.79,5,2,12,0.00
2013-9-21,68.6,55.3,46.2,50.5,47.8,44.1,96,78,50,30.01,29.91,4,1,8,0.00
2013-9-22,73.9,59.3,47.5,54.4,50.8,46.2,98,76,48,30.02,29.91,6,2,8,0.00
2013-9-23,73.7,60.4,48.3,53.6,50.2,46.4,93,71,45,30.02,29.89,8,4,12,0.00
2013-9-24,72.3,61.0,51.2,57.2,51.8,47.4,90,73,49,29.95,29.88,5,2,8,0.00
2013-9-25,76.2,62.4,49.5,56.3,52.6,47.8,94,73,47,29.97,29.87,4,1,8,0.00
2013-9-26,83.0,68.0,54.2,62.1,56.9,50.9,89,70,47,29.97,29.88,8,4,12,0.00
2013-9-27,83.0,71.1,61.1,65.3,59.8,56.6,87,69,48,30.01,29.88,9,5,15,0.00
2013-9-28,70.8,61.3,50.3,64.8,56.6,47.9,96,85,71,30.01,29.78,7,3,13,0.30
2013-9-29,73.9,57.9,43.8,51.5,46.1,42.7,97,69,36,30.08,29.93,5,2,8,0.00
2013-9-30,76.3,61.4,47.9,55.3,49.7,44.6,90,68,39,29.95,29.74,7,3,11,0.00
2013-10-1,82.3,66.7,56.5,58.3,54.1,46.1,94,68,32,29.98,29.78,6,1,11,0.00
2013-10-2,81.0,65.9,49.9,61.1,50.5,39.1,90,62,29,30.06,29.86,8,2,11,0.00
2013-10-3,81.1,70.4,62.4,67.9,62.9,59.9,96,79,51,29.86,29.74,6,2,11,0.00
2013-10-4,69.9,66.3,62.3,68.2,64.4,60.8,97,94,87,29.92,29.74,9,2,13,0.47
2013-10-5,70.0,58.6,44.0,67.0,49.4,38.4,93,73,47,29.89,29.76,5,2,12,0.00
2013-10-6,50.1,46.5,43.9,47.8,41.9,38.4,94,84,72,29.85,29.73,3,1,8,0.03
2013-10-7,72.0,56.2,43.4,50.7,46.3,40.8,94,73,43,30.05,29.85,5,1,10,0.00
2013-10-8,77.6,61.6,47.3,49.0,45.5,42.3,92,60,29,30.09,29.99,7,3,11,0.00
2013-10-9,75.5,60.8,49.0,52.0,47.5,43.8,89,64,33,30.14,30.05,7,2,11,0.00
2013-10-10,75.7,60.3,47.8,55.0,49.2,43.7,88,69,41,30.10,29.94,6,2,11,0.00
2013-10-11,76.3,65.0,54.0,59.2,54.6,51.0,92,71,46,29.94,29.75,11,5,18,0.00
2013-10-12,67.0,57.8,47.0,59.2,41.5,31.3,81,57,29,30.22,29.78,6,3,16,0.00
2013-10-13,65.2,48.5,36.3,38.5,34.2,29.9,87,62,28,30.46,30.22,3,0,8,0.00
2013-10-14,63.2,51.0,36.2,45.3,38.8,33.9,92,66,40,30.40,29.94,10,4,14,0.05
2013-10-15,57.4,51.8,47.8,56.3,46.4,42.3,96,82,64,29.94,29.78,9,6,16,0.25
2013-10-16,48.3,47.0,46.0,46.0,44.1,42.8,94,90,86,29.99,29.85,6,2,11,0.02
2013-10-17,60.3,48.7,41.3,43.4,38.6,32.8,94,71,36,29.97,29.82,4,1,11,0.00
2013-10-18,51.5,45.4,40.4,41.8,35.0,29.2,87,69,44,30.02,29.90,5,2,13,0.00
2013-10-19,52.4,41.3,33.9,42.5,36.0,31.4,94,82,60,29.95,29.78,8,2,17,0.04
2013-10-20,59.2,44.4,32.7,45.9,37.5,30.9,94,78,54,29.92,29.70,7,2,12,0.00
2013-10-21,45.2,37.6,30.0,34.6,27.6,23.3,85,68,49,30.05,29.91,6,2,11,0.00
2013-10-22,39.7,33.9,27.7,35.9,30.6,25.3,96,88,71,30.08,29.98,3,0,8,0.17
2013-10-23,40.7,36.5,29.6,33.8,28.1,21.7,88,72,52,30.14,30.06,4,1,9,0.00
2013-10-24,43.9,35.4,29.0,27.0,25.4,22.9,86,68,50,30.39,30.14,4,1,8,0.00
2013-10-25,54.9,40.5,25.9,33.2,29.1,23.8,93,67,40,30.42,30.00,9,3,16,0.00
2013-10-26,51.4,43.7,34.9,35.6,30.8,27.7,77,61,41,30.15,29.92,7,3,14,0.00
2013-10-27,60.2,42.4,27.6,34.5,30.4,24.3,88,66,37,30.13,29.89,5,2,11,0.00
2013-10-28,48.9,41.7,36.3,37.6,33.8,31.2,82,74,62,30.36,30.01,5,3,16,0.00
2013-10-29,57.5,47.2,38.7,44.6,38.1,32.2,83,71,58,30.36,30.07,7,3,9,0.00
2013-10-30,59.9,53.9,50.6,57.0,52.0,44.9,99,94,77,30.07,29.64,9,3,12,0.54
2013-10-31,59.7,47.1,40.9,59.2,45.3,37.7,99,93,86,29.64,29.43,5,2,11,0.03
2013-11-1,52.8,45.1,41.1,41.8,39.4,36.7,92,81,55,29.83,29.48,5,2,11,0.00
2013-11-2,51.7,41.9,33.0,38.9,33.8,29.4,91,75,43,30.17,29.84,5,2,11,0.00
2013-11-3,53.8,42.8,31.6,38.1,33.5,28.5,92,71,49,30.22,30.02,12,6,19,0.00
2013-11-4,49.4,46.3,41.8,47.2,41.9,35.3,97,85,67,30.18,29.98,9,4,17,0.04
2013-11-5,55.9,45.9,34.1,55.2,45.1,33.3,99,97,91,30.23,29.78,6,2,9,0.94
2013-11-6,49.8,38.2,28.9,48.4,31.2,24.1,97,77,45,30.27,29.79,8,3,15,0.06
2013-11-7,46.6,34.9,27.5,34.0,28.7,24.6,91,79,58,30.33,30.25,6,2,12,0.00
2013-11-8,48.6,37.8,24.4,39.0,29.7,22.4,93,74,51,30.31,29.80,14,4,17,0.00
2013-11-9,52.6,45.8,36.3,39.8,36.6,29.1,80,70,57,30.27,29.80,8,4,14,0.00
2013-11-10,36.2,31.2,27.3,29.1,26.7,24.5,90,83,75,30.42,30.27,4,2,11,0.00
2013-11-11,39.0,25.7,17.5,32.4,19.4,12.0,93,77,68,30.72,30.24,8,5,16,0.00
2013-11-12,27.0,19.1,11.9,14.7,12.1,8.2,85,74,55,30.89,30.65,4,2,8,0.00
2013-11-13,47.3,31.7,17.1,23.8,18.3,12.4,83,60,36,30.65,30.08,8,3,13,0.00
2013-11-14,49.4,40.2,31.8,31.7,27.2,21.1,71,60,47,30.08,29.90,8,2,14,0.00
2013-11-15,55.7,41.4,27.5,40.2,32.8,25.0,92,73,53,29.95,29.80,4,2,8,0.00
2013-11-16,61.2,50.5,39.7,58.0,48.2,35.6,98,92,83,29.80,29.30,8,4,12,0.29
2013-11-17,50.2,45.2,37.5,49.7,42.7,33.9,99,91,77,29.91,29.29,8,3,15,0.53
2013-11-18,41.7,35.0,24.9,34.3,28.5,23.3,94,78,58,30.33,29.91,7,3,16,0.00
2013-11-19,44.7,34.5,23.9,33.2,28.1,22.3,96,79,61,30.34,30.11,9,5,16,0.00
2013-11-20,38.7,37.0,35.4,36.3,32.9,28.6,96,86,68,30.12,29.98,9,6,13,0.02
2013-11-21,40.2,35.1,28.7,38.1,33.6,27.2,97,94,91,30.43,30.08,6,2,12,0.01
2013-11-22,28.6,23.9,17.4,27.1,18.9,11.9,95,81,64,30.65,30.43,7,3,13,0.00
2013-11-23,20.2,13.9,7.0,15.4,5.7,-99.9,84,73,59,30.86,30.60,7,-9,17,0.00
2013-11-24,26.1,15.6,4.1,13.5,8.0,1.0,89,73,51,30.83,30.33,14,2,14,0.00
2013-11-25,35.1,27.8,21.9,28.4,23.2,13.1,93,83,66,30.33,30.11,18,4,20,0.01
2013-11-26,32.0,24.0,14.2,25.5,14.5,6.6,85,67,47,30.39,30.14,22,4,26,0.00
2013-11-27,23.2,16.0,9.0,12.6,9.0,5.0,84,74,59,30.45,30.18,9,2,9,0.00
2013-11-28,31.8,20.7,10.8,19.9,14.5,8.8,93,77,59,30.58,30.15,10,2,10,0.00
2013-11-29,32.2,22.2,8.8,23.9,17.3,7.0,93,82,69,30.62,30.31,12,3,13,0.00
2013-11-30,45.0,32.9,24.1,34.5,27.6,21.0,93,81,65,30.31,30.08,11,2,11,0.00
2013-12-1,39.7,33.2,25.5,30.2,28.3,23.7,94,83,67,30.20,29.97,6,1,6,0.00
2013-12-2,39.9,35.4,29.3,36.1,32.6,27.5,95,89,82,29.97,29.63,15,3,15,0.00
2013-12-3,40.5,37.2,34.5,40.3,36.8,33.4,99,98,95,29.70,29.59,12,2,12,0.01
2013-12-4,45.0,35.6,22.6,45.0,34.9,19.6,100,97,88,29.85,29.45,18,3,22,0.03
2013-12-5,22.6,13.9,7.2,19.6,8.1,1.2,88,77,70,30.45,29.83,25,5,25,0.00
2013-12-6,13.5,6.5,1.0,3.9,0.1,-4.0,80,75,64,30.75,30.43,12,3,12,0.00
2013-12-7,11.8,4.6,-2.4,2.5,-2.7,-6.7,82,72,56,30.86,30.66,9,1,9,0.00
2013-12-8,18.9,15.1,10.2,16.3,10.3,1.8,92,82,68,30.66,30.08,12,2,14,0.00
2013-12-9,16.0,3.2,-5.8,14.0,-1.2,-9.6,92,82,68,30.32,30.08,19,3,19,0.00
2013-12-10,16.7,12.3,-3.5,13.8,6.8,-7.8,92,78,69,30.33,30.02,24,4,24,0.00
2013-12-11,17.1,3.8,-4.2,15.1,-1.5,-8.9,93,78,64,30.68,30.32,16,3,16,0.00
2013-12-12,21.7,10.7,-3.8,14.9,6.0,-8.0,92,81,73,30.60,30.24,12,2,12,0.00
2013-12-13,26.1,18.5,8.2,20.7,14.9,6.1,92,86,79,30.24,30.09,16,2,16,0.00
2013-12-14,21.6,18.0,12.6,18.1,14.6,8.2,92,86,80,30.20,30.14,14,3,15,0.00
2013-12-15,12.6,9.1,6.4,7.7,3.7,0.1,88,78,68,30.21,30.15,13,2,15,0.00
2013-12-16,20.8,15.3,9.9,19.2,12.6,6.3,94,89,85,30.20,30.06,9,2,11,0.00
2013-12-17,33.4,25.3,16.0,27.1,19.8,13.8,94,80,62,30.22,30.07,15,4,21,0.00
2013-12-18,42.6,27.7,13.6,34.0,22.7,10.8,95,82,67,30.20,29.78,12,2,13,0.02
2013-12-19,32.5,28.2,24.1,28.0,25.3,22.6,97,89,78,29.95,29.82,16,2,16,0.00
2013-12-20,28.2,23.6,22.3,27.0,22.0,20.7,95,94,91,29.94,29.86,12,2,12,0.00
2013-12-21,26.8,24.1,21.7,25.9,22.5,20.1,96,93,91,29.95,29.80,15,2,15,0.00
2013-12-22,26.8,18.1,2.5,25.9,15.9,-1.3,96,91,84,30.34,29.80,13,4,15,0.00
2013-12-23,2.5,-1.3,-5.6,-1.3,-6.0,-10.3,84,80,74,30.64,30.34,15,3,16,0.00
2013-12-24,10.9,-1.7,-13.2,8.8,-6.5,-16.8,91,80,67,30.66,30.32,14,3,14,0.00
2013-12-25,28.6,20.0,11.1,26.2,17.4,8.8,94,90,76,30.33,30.19,15,2,16,0.00
2013-12-26,33.3,23.5,16.0,27.3,20.1,13.1,93,87,76,30.27,30.15,5,0,5,0.00
2013-12-27,41.0,28.9,15.1,32.2,24.4,13.5,96,84,70,30.29,30.08,15,2,15,0.08
2013-12-28,43.3,34.8,25.3,34.0,29.5,22.5,93,81,68,30.10,29.79,15,2,15,0.00
2013-12-29,27.9,9.5,-4.7,25.9,4.6,-10.1,93,80,69,30.40,29.91,20,5,22,0.00
2013-12-30,5.2,-1.8,-8.7,2.5,-5.9,-12.5,89,82,73,30.42,30.27,7,1,7,0.00
2013-12-31,7.3,2.6,-8.3,3.9,-0.8,-11.6,91,85,81,30.44,30.32,9,1,10,0.00
2014-1-1,7.9,5.7,2.5,3.0,0.9,-1.3,86,80,73,30.45,30.36,14,4,15,0.00
2014-1-2,6.6,2.6,-8.1,1.2,-2.7,-11.4,87,78,69,30.57,30.40,12,3,13,0.00